Pulaski, Virginia
Current Conditions -  °F | °C
As of 4:35 AM on Sunday 26 Oct 2014 (Local Time) from KPSK Reporting Station
Scattered Clouds Scattered Clouds  
Wind Chill: 63°   Ceiling: Unl
Heat Index: 63°   Visibility: 10mi
Dew Point: 52°   Wind: 20mph
Humidity: 68%   Direction: 310°NW
Pressure: 29.87"   Gusts: 32mph
Location:  37.05°N, 80.78°W
Report Text: KPSK 260835Z AUTO 31017G28KT 10SM SCT036 SCT045 17/11 A2987 RMK AO2
Loading
Personal Weather Stations






























Interactive Weather Map
Tropical Storm Tracking
New forecast layout! Learn more

10-Day Weather Forecast

Advertisements
Track Severe Weather on mobile